sensor_id;sensor_type;location;lat;lon;timestamp;temperature;humidity
9118;DHT22;4594;50.994;7.126;2023-03-24T00:01:16;14.80;54.40
9118;DHT22;4594;50.994;7.126;2023-03-24T00:03:42;14.80;54.50
9118;DHT22;4594;50.994;7.126;2023-03-24T00:06:13;14.80;54.50
9118;DHT22;4594;50.994;7.126;2023-03-24T00:08:40;14.90;54.60
9118;DHT22;4594;50.994;7.126;2023-03-24T00:11:09;14.80;54.60
9118;DHT22;4594;50.994;7.126;2023-03-24T00:13:37;14.90;54.60
9118;DHT22;4594;50.994;7.126;2023-03-24T00:16:08;15.00;54.80
9118;DHT22;4594;50.994;7.126;2023-03-24T00:18:37;14.90;54.50
9118;DHT22;4594;50.994;7.126;2023-03-24T00:21:05;14.90;54.80
9118;DHT22;4594;50.994;7.126;2023-03-24T00:23:32;14.90;54.80
9118;DHT22;4594;50.994;7.126;2023-03-24T00:26:04;15.00;54.90
9118;DHT22;4594;50.994;7.126;2023-03-24T00:28:41;14.90;54.80
9118;DHT22;4594;50.994;7.126;2023-03-24T00:31:09;14.90;54.80
9118;DHT22;4594;50.994;7.126;2023-03-24T00:33:36;15.10;55.00
9118;DHT22;4594;50.994;7.126;2023-03-24T00:36:07;15.00;54.90
9118;DHT22;4594;50.994;7.126;2023-03-24T00:38:38;15.10;54.60
9118;DHT22;4594;50.994;7.126;2023-03-24T00:41:07;15.10;55.00
9118;DHT22;4594;50.994;7.126;2023-03-24T00:43:35;15.10;54.90
9118;DHT22;4594;50.994;7.126;2023-03-24T00:46:04;15.10;55.00
9118;DHT22;4594;50.994;7.126;2023-03-24T00:48:33;15.20;54.90
9118;DHT22;4594;50.994;7.126;2023-03-24T00:51:04;15.20;55.10
9118;DHT22;4594;50.994;7.126;2023-03-24T00:53:33;15.20;54.60
9118;DHT22;4594;50.994;7.126;2023-03-24T00:55:59;15.20;55.00
9118;DHT22;4594;50.994;7.126;2023-03-24T00:58:26;15.30;55.10
9118;DHT22;4594;50.994;7.126;2023-03-24T01:00:55;15.30;55.10
9118;DHT22;4594;50.994;7.126;2023-03-24T01:03:23;15.30;55.10
9118;DHT22;4594;50.994;7.126;2023-03-24T01:05:59;15.30;55.20
9118;DHT22;4594;50.994;7.126;2023-03-24T01:08:27;15.30;54.60
9118;DHT22;4594;50.994;7.126;2023-03-24T01:10:53;15.30;55.30
9118;DHT22;4594;50.994;7.126;2023-03-24T01:13:25;15.30;55.30
9118;DHT22;4594;50.994;7.126;2023-03-24T01:15:53;15.30;55.00
9118;DHT22;4594;50.994;7.126;2023-03-24T01:18:20;15.30;55.40
9118;DHT22;4594;50.994;7.126;2023-03-24T01:20:48;15.30;55.40
9118;DHT22;4594;50.994;7.126;2023-03-24T01:23:21;15.10;55.30
9118;DHT22;4594;50.994;7.126;2023-03-24T01:25:50;15.30;54.70
9118;DHT22;4594;50.994;7.126;2023-03-24T01:28:21;15.20;55.40
9118;DHT22;4594;50.994;7.126;2023-03-24T01:30:51;15.30;55.20
9118;DHT22;4594;50.994;7.126;2023-03-24T01:33:18;15.20;55.50
9118;DHT22;4594;50.994;7.126;2023-03-24T01:35:44;15.40;55.80
9118;DHT22;4594;50.994;7.126;2023-03-24T01:38:12;15.30;55.80
9118;DHT22;4594;50.994;7.126;2023-03-24T01:40:41;15.20;55.60
9118;DHT22;4594;50.994;7.126;2023-03-24T01:43:21;15.40;55.90
9118;DHT22;4594;50.994;7.126;2023-03-24T01:51:28;15.40;56.20
9118;DHT22;4594;50.994;7.126;2023-03-24T01:54:19;15.40;55.40
9118;DHT22;4594;50.994;7.126;2023-03-24T01:59:50;15.50;56.20
9118;DHT22;4594;50.994;7.126;2023-03-24T02:02:20;15.50;56.30
9118;DHT22;4594;50.994;7.126;2023-03-24T02:04:52;15.50;56.70
9118;DHT22;4594;50.994;7.126;2023-03-24T02:07:55;15.60;56.20
9118;DHT22;4594;50.994;7.126;2023-03-24T02:10:31;15.60;55.30
9118;DHT22;4594;50.994;7.126;2023-03-24T02:12:59;15.60;56.30
9118;DHT22;4594;50.994;7.126;2023-03-24T02:15:27;15.60;56.40
9118;DHT22;4594;50.994;7.126;2023-03-24T02:26:32;15.70;55.30
9118;DHT22;4594;50.994;7.126;2023-03-24T02:29:14;15.70;56.30
9118;DHT22;4594;50.994;7.126;2023-03-24T02:44:21;15.80;55.50
9118;DHT22;4594;50.994;7.126;2023-03-24T02:47:31;15.80;55.70
9118;DHT22;4594;50.994;7.126;2023-03-24T02:52:54;15.80;55.60
9118;DHT22;4594;50.994;7.126;2023-03-24T02:55:43;15.80;55.60
9118;DHT22;4594;50.994;7.126;2023-03-24T02:58:39;15.80;55.40
9118;DHT22;4594;50.994;7.126;2023-03-24T03:01:40;15.80;56.20
9118;DHT22;4594;50.994;7.126;2023-03-24T03:04:23;15.80;55.90
9118;DHT22;4594;50.994;7.126;2023-03-24T03:07:04;15.80;56.20
9118;DHT22;4594;50.994;7.126;2023-03-24T03:09:36;15.70;56.40
9118;DHT22;4594;50.994;7.126;2023-03-24T03:12:09;15.70;56.40
9118;DHT22;4594;50.994;7.126;2023-03-24T03:15:13;15.80;56.50
9118;DHT22;4594;50.994;7.126;2023-03-24T03:18:04;15.80;56.50
9118;DHT22;4594;50.994;7.126;2023-03-24T03:20:39;15.70;55.80
9118;DHT22;4594;50.994;7.126;2023-03-24T03:23:34;15.80;56.70
9118;DHT22;4594;50.994;7.126;2023-03-24T03:26:04;15.80;56.90
9118;DHT22;4594;50.994;7.126;2023-03-24T03:28:39;15.80;56.80
9118;DHT22;4594;50.994;7.126;2023-03-24T03:31:17;15.80;56.90
9118;DHT22;4594;50.994;7.126;2023-03-24T03:34:16;15.80;56.90
9118;DHT22;4594;50.994;7.126;2023-03-24T03:37:19;15.80;56.00
9118;DHT22;4594;50.994;7.126;2023-03-24T03:39:56;15.80;56.20
9118;DHT22;4594;50.994;7.126;2023-03-24T03:42:25;15.80;56.90
9118;DHT22;4594;50.994;7.126;2023-03-24T03:44:51;15.80;57.40
9118;DHT22;4594;50.994;7.126;2023-03-24T03:47:18;15.80;57.40
9118;DHT22;4594;50.994;7.126;2023-03-24T03:49:45;15.80;57.40
9118;DHT22;4594;50.994;7.126;2023-03-24T03:52:12;15.80;57.40
9118;DHT22;4594;50.994;7.126;2023-03-24T03:54:40;15.80;57.30
9118;DHT22;4594;50.994;7.126;2023-03-24T03:57:08;15.80;57.30
9118;DHT22;4594;50.994;7.126;2023-03-24T03:59:37;15.90;57.80
9118;DHT22;4594;50.994;7.126;2023-03-24T04:02:36;15.80;57.40
9118;DHT22;4594;50.994;7.126;2023-03-24T04:05:12;15.80;56.50
9118;DHT22;4594;50.994;7.126;2023-03-24T04:16:19;15.80;57.20
9118;DHT22;4594;50.994;7.126;2023-03-24T04:19:02;15.90;56.90
9118;DHT22;4594;50.994;7.126;2023-03-24T04:27:53;15.90;56.90
9118;DHT22;4594;50.994;7.126;2023-03-24T04:30:47;15.90;56.80
9118;DHT22;4594;50.994;7.126;2023-03-24T04:33:27;15.90;57.00
9118;DHT22;4594;50.994;7.126;2023-03-24T04:37:02;16.00;57.30
9118;DHT22;4594;50.994;7.126;2023-03-24T04:39:35;16.00;56.50
9118;DHT22;4594;50.994;7.126;2023-03-24T04:42:28;15.90;57.60
9118;DHT22;4594;50.994;7.126;2023-03-24T04:44:56;16.00;57.70
9118;DHT22;4594;50.994;7.126;2023-03-24T04:47:25;16.00;57.90
9118;DHT22;4594;50.994;7.126;2023-03-24T04:50:07;16.00;57.70
9118;DHT22;4594;50.994;7.126;2023-03-24T04:52:37;16.00;56.80
9118;DHT22;4594;50.994;7.126;2023-03-24T04:55:49;16.10;58.00
9118;DHT22;4594;50.994;7.126;2023-03-24T04:58:29;16.10;57.00
9118;DHT22;4594;50.994;7.126;2023-03-24T05:00:55;16.10;58.20
9118;DHT22;4594;50.994;7.126;2023-03-24T05:03:23;16.10;58.30
9118;DHT22;4594;50.994;7.126;2023-03-24T05:05:50;16.10;58.20
9118;DHT22;4594;50.994;7.126;2023-03-24T05:08:18;16.00;58.00
9118;DHT22;4594;50.994;7.126;2023-03-24T05:10:45;16.00;57.80
9118;DHT22;4594;50.994;7.126;2023-03-24T05:13:11;16.00;57.60
9118;DHT22;4594;50.994;7.126;2023-03-24T05:15:38;15.90;57.30
9118;DHT22;4594;50.994;7.126;2023-03-24T05:18:04;15.90;57.20
9118;DHT22;4594;50.994;7.126;2023-03-24T05:20:30;15.80;57.00
9118;DHT22;4594;50.994;7.126;2023-03-24T05:22:56;15.90;57.00
9118;DHT22;4594;50.994;7.126;2023-03-24T05:25:22;15.70;57.10
9118;DHT22;4594;50.994;7.126;2023-03-24T05:27:48;15.50;56.70
9118;DHT22;4594;50.994;7.126;2023-03-24T05:30:16;15.50;56.70
9118;DHT22;4594;50.994;7.126;2023-03-24T05:32:42;15.50;56.70
9118;DHT22;4594;50.994;7.126;2023-03-24T05:35:08;15.30;56.60
9118;DHT22;4594;50.994;7.126;2023-03-24T05:37:34;15.40;56.70
9118;DHT22;4594;50.994;7.126;2023-03-24T05:39:59;15.30;56.70
9118;DHT22;4594;50.994;7.126;2023-03-24T05:42:25;15.20;56.60
9118;DHT22;4594;50.994;7.126;2023-03-24T05:44:51;15.20;56.50
9118;DHT22;4594;50.994;7.126;2023-03-24T05:47:16;15.10;56.30
9118;DHT22;4594;50.994;7.126;2023-03-24T05:49:45;15.10;56.50
9118;DHT22;4594;50.994;7.126;2023-03-24T05:52:11;15.00;56.40
9118;DHT22;4594;50.994;7.126;2023-03-24T05:54:40;15.00;56.60
9118;DHT22;4594;50.994;7.126;2023-03-24T05:57:09;15.00;56.80
9118;DHT22;4594;50.994;7.126;2023-03-24T05:59:37;14.90;56.90
9118;DHT22;4594;50.994;7.126;2023-03-24T06:02:03;14.80;57.00
9118;DHT22;4594;50.994;7.126;2023-03-24T06:04:29;14.90;57.40
9118;DHT22;4594;50.994;7.126;2023-03-24T06:06:56;14.80;57.50
9118;DHT22;4594;50.994;7.126;2023-03-24T06:09:24;14.90;57.70
9118;DHT22;4594;50.994;7.126;2023-03-24T06:11:54;14.70;57.70
9118;DHT22;4594;50.994;7.126;2023-03-24T06:14:20;14.80;57.80
9118;DHT22;4594;50.994;7.126;2023-03-24T06:16:46;14.80;57.80
9118;DHT22;4594;50.994;7.126;2023-03-24T06:19:14;14.80;57.90
9118;DHT22;4594;50.994;7.126;2023-03-24T06:21:41;14.80;57.90
9118;DHT22;4594;50.994;7.126;2023-03-24T06:24:09;14.80;57.90
9118;DHT22;4594;50.994;7.126;2023-03-24T06:26:39;14.80;58.00
9118;DHT22;4594;50.994;7.126;2023-03-24T06:29:06;14.80;57.90
9118;DHT22;4594;50.994;7.126;2023-03-24T06:31:32;14.80;57.90
9118;DHT22;4594;50.994;7.126;2023-03-24T06:34:00;14.80;57.90
9118;DHT22;4594;50.994;7.126;2023-03-24T06:36:26;14.80;57.60
9118;DHT22;4594;50.994;7.126;2023-03-24T06:38:51;14.90;57.60
9118;DHT22;4594;50.994;7.126;2023-03-24T06:41:17;14.80;57.60
9118;DHT22;4594;50.994;7.126;2023-03-24T06:43:43;14.90;57.70
9118;DHT22;4594;50.994;7.126;2023-03-24T06:46:09;14.90;57.70
9118;DHT22;4594;50.994;7.126;2023-03-24T06:48:35;14.90;57.80
9118;DHT22;4594;50.994;7.126;2023-03-24T06:51:01;15.00;57.90
9118;DHT22;4594;50.994;7.126;2023-03-24T06:53:27;14.90;57.90
9118;DHT22;4594;50.994;7.126;2023-03-24T06:55:53;14.90;57.80
9118;DHT22;4594;50.994;7.126;2023-03-24T06:58:19;15.00;57.60
9118;DHT22;4594;50.994;7.126;2023-03-24T07:00:45;14.90;56.90
9118;DHT22;4594;50.994;7.126;2023-03-24T07:03:11;15.00;56.60
9118;DHT22;4594;50.994;7.126;2023-03-24T07:05:39;14.90;56.30
9118;DHT22;4594;50.994;7.126;2023-03-24T07:08:06;15.00;56.00
9118;DHT22;4594;50.994;7.126;2023-03-24T07:10:32;14.90;55.90
9118;DHT22;4594;50.994;7.126;2023-03-24T07:12:59;15.00;56.00
9118;DHT22;4594;50.994;7.126;2023-03-24T07:15:28;14.90;55.90
9118;DHT22;4594;50.994;7.126;2023-03-24T07:17:54;14.80;55.80
9118;DHT22;4594;50.994;7.126;2023-03-24T07:20:20;14.80;55.90
9118;DHT22;4594;50.994;7.126;2023-03-24T07:22:46;14.80;55.70
9118;DHT22;4594;50.994;7.126;2023-03-24T07:25:12;14.80;55.70
9118;DHT22;4594;50.994;7.126;2023-03-24T07:27:39;14.80;55.40
9118;DHT22;4594;50.994;7.126;2023-03-24T07:30:06;14.70;55.20
9118;DHT22;4594;50.994;7.126;2023-03-24T07:32:33;14.70;54.90
9118;DHT22;4594;50.994;7.126;2023-03-24T07:35:10;14.70;55.00
9118;DHT22;4594;50.994;7.126;2023-03-24T07:37:37;14.60;55.10
9118;DHT22;4594;50.994;7.126;2023-03-24T07:40:04;14.60;55.10
9118;DHT22;4594;50.994;7.126;2023-03-24T07:42:32;14.60;55.00
9118;DHT22;4594;50.994;7.126;2023-03-24T07:44:57;14.60;55.00
9118;DHT22;4594;50.994;7.126;2023-03-24T07:47:23;14.50;54.90
9118;DHT22;4594;50.994;7.126;2023-03-24T07:49:48;14.50;55.10
9118;DHT22;4594;50.994;7.126;2023-03-24T07:52:14;14.50;55.20
9118;DHT22;4594;50.994;7.126;2023-03-24T07:54:40;14.50;55.30
9118;DHT22;4594;50.994;7.126;2023-03-24T07:57:06;14.40;55.10
9118;DHT22;4594;50.994;7.126;2023-03-24T07:59:32;14.50;55.20
9118;DHT22;4594;50.994;7.126;2023-03-24T08:01:58;14.40;55.20
9118;DHT22;4594;50.994;7.126;2023-03-24T08:04:24;14.40;55.30
9118;DHT22;4594;50.994;7.126;2023-03-24T08:06:52;14.40;55.40
9118;DHT22;4594;50.994;7.126;2023-03-24T08:09:18;14.50;55.80
9118;DHT22;4594;50.994;7.126;2023-03-24T08:11:44;14.50;55.90
9118;DHT22;4594;50.994;7.126;2023-03-24T08:14:10;14.50;55.80
9118;DHT22;4594;50.994;7.126;2023-03-24T08:16:36;14.60;56.00
9118;DHT22;4594;50.994;7.126;2023-03-24T08:19:04;14.60;56.10
9118;DHT22;4594;50.994;7.126;2023-03-24T08:21:31;14.60;56.10
9118;DHT22;4594;50.994;7.126;2023-03-24T08:23:56;14.80;56.70
9118;DHT22;4594;50.994;7.126;2023-03-24T08:26:22;14.80;56.50
9118;DHT22;4594;50.994;7.126;2023-03-24T08:28:51;14.90;57.50
9118;DHT22;4594;50.994;7.126;2023-03-24T08:31:18;15.00;58.40
9118;DHT22;4594;50.994;7.126;2023-03-24T08:33:44;15.20;58.50
9118;DHT22;4594;50.994;7.126;2023-03-24T08:36:09;15.60;60.30
9118;DHT22;4594;50.994;7.126;2023-03-24T08:38:36;15.90;64.30
9118;DHT22;4594;50.994;7.126;2023-03-24T08:41:03;16.60;67.90
9118;DHT22;4594;50.994;7.126;2023-03-24T08:43:32;17.30;71.00
9118;DHT22;4594;50.994;7.126;2023-03-24T08:46:00;18.20;73.60
9118;DHT22;4594;50.994;7.126;2023-03-24T08:48:28;19.10;71.70
9118;DHT22;4594;50.994;7.126;2023-03-24T08:50:55;19.80;68.30
9118;DHT22;4594;50.994;7.126;2023-03-24T08:53:21;20.30;64.90
9118;DHT22;4594;50.994;7.126;2023-03-24T08:55:46;20.60;61.10
9118;DHT22;4594;50.994;7.126;2023-03-24T08:58:19;20.90;59.80
9118;DHT22;4594;50.994;7.126;2023-03-24T09:00:47;21.20;59.40
9118;DHT22;4594;50.994;7.126;2023-03-24T09:03:16;21.80;63.20
9118;DHT22;4594;50.994;7.126;2023-03-24T09:05:46;22.20;61.30
9118;DHT22;4594;50.994;7.126;2023-03-24T09:08:14;22.50;59.70
9118;DHT22;4594;50.994;7.126;2023-03-24T09:10:42;22.90;59.10
9118;DHT22;4594;50.994;7.126;2023-03-24T09:13:11;23.10;57.30
9118;DHT22;4594;50.994;7.126;2023-03-24T09:15:37;23.20;55.80
9118;DHT22;4594;50.994;7.126;2023-03-24T09:18:03;23.30;54.50
9118;DHT22;4594;50.994;7.126;2023-03-24T09:20:29;23.40;53.90
9118;DHT22;4594;50.994;7.126;2023-03-24T09:22:55;23.50;53.90
9118;DHT22;4594;50.994;7.126;2023-03-24T09:25:21;23.50;53.60
9118;DHT22;4594;50.994;7.126;2023-03-24T09:27:48;23.80;54.20
9118;DHT22;4594;50.994;7.126;2023-03-24T09:30:16;24.00;54.40
9118;DHT22;4594;50.994;7.126;2023-03-24T09:32:43;24.40;54.50
9118;DHT22;4594;50.994;7.126;2023-03-24T09:35:10;24.80;54.70
9118;DHT22;4594;50.994;7.126;2023-03-24T09:37:36;25.00;53.70
9118;DHT22;4594;50.994;7.126;2023-03-24T09:40:03;25.30;54.20
9118;DHT22;4594;50.994;7.126;2023-03-24T09:42:37;25.70;54.30
9118;DHT22;4594;50.994;7.126;2023-03-24T09:45:17;26.20;52.10
9118;DHT22;4594;50.994;7.126;2023-03-24T09:47:52;26.70;51.80
9118;DHT22;4594;50.994;7.126;2023-03-24T09:50:39;27.20;53.60
9118;DHT22;4594;50.994;7.126;2023-03-24T09:56:25;28.40;50.90
9118;DHT22;4594;50.994;7.126;2023-03-24T09:59:20;29.00;54.60
9118;DHT22;4594;50.994;7.126;2023-03-24T10:01:52;29.60;51.20
9118;DHT22;4594;50.994;7.126;2023-03-24T10:04:21;30.20;53.20
9118;DHT22;4594;50.994;7.126;2023-03-24T10:06:54;30.60;50.90
9118;DHT22;4594;50.994;7.126;2023-03-24T10:09:30;31.10;50.10
9118;DHT22;4594;50.994;7.126;2023-03-24T10:12:24;31.50;49.10
9118;DHT22;4594;50.994;7.126;2023-03-24T10:15:09;31.70;46.50
9118;DHT22;4594;50.994;7.126;2023-03-24T10:20:48;32.10;46.40
9118;DHT22;4594;50.994;7.126;2023-03-24T10:23:50;32.10;44.70
9118;DHT22;4594;50.994;7.126;2023-03-24T10:26:37;32.00;43.90
9118;DHT22;4594;50.994;7.126;2023-03-24T10:29:29;32.10;45.30
9118;DHT22;4594;50.994;7.126;2023-03-24T10:32:05;32.30;44.30
9118;DHT22;4594;50.994;7.126;2023-03-24T10:34:40;32.50;45.30
9118;DHT22;4594;50.994;7.126;2023-03-24T10:37:10;32.70;45.10
9118;DHT22;4594;50.994;7.126;2023-03-24T10:39:38;32.80;44.70
9118;DHT22;4594;50.994;7.126;2023-03-24T10:42:05;32.80;43.50
9118;DHT22;4594;50.994;7.126;2023-03-24T10:44:30;32.80;43.40
9118;DHT22;4594;50.994;7.126;2023-03-24T10:46:58;32.60;42.20
9118;DHT22;4594;50.994;7.126;2023-03-24T10:49:29;32.50;42.10
9118;DHT22;4594;50.994;7.126;2023-03-24T10:52:00;32.20;41.50
9118;DHT22;4594;50.994;7.126;2023-03-24T10:54:29;31.80;40.00
9118;DHT22;4594;50.994;7.126;2023-03-24T10:59:37;30.90;39.00
9118;DHT22;4594;50.994;7.126;2023-03-24T11:02:17;30.40;38.70
9118;DHT22;4594;50.994;7.126;2023-03-24T11:07:29;29.40;38.40
9118;DHT22;4594;50.994;7.126;2023-03-24T11:12:43;28.50;37.60
9118;DHT22;4594;50.994;7.126;2023-03-24T11:15:28;28.10;38.40
9118;DHT22;4594;50.994;7.126;2023-03-24T11:20:38;27.20;37.10
9118;DHT22;4594;50.994;7.126;2023-03-24T11:26:10;26.40;37.00
9118;DHT22;4594;50.994;7.126;2023-03-24T11:28:50;26.10;37.00
9118;DHT22;4594;50.994;7.126;2023-03-24T11:31:26;25.80;38.20
9118;DHT22;4594;50.994;7.126;2023-03-24T11:33:59;25.50;37.50
9118;DHT22;4594;50.994;7.126;2023-03-24T11:39:24;25.10;37.80
9118;DHT22;4594;50.994;7.126;2023-03-24T11:47:05;24.50;37.40
9118;DHT22;4594;50.994;7.126;2023-03-24T11:49:43;24.30;37.50
9118;DHT22;4594;50.994;7.126;2023-03-24T11:52:32;24.10;36.90
9118;DHT22;4594;50.994;7.126;2023-03-24T11:55:05;23.90;36.50
9118;DHT22;4594;50.994;7.126;2023-03-24T11:57:43;23.60;37.30
9118;DHT22;4594;50.994;7.126;2023-03-24T12:00:27;23.40;37.30
9118;DHT22;4594;50.994;7.126;2023-03-24T12:05:41;23.10;37.50
9118;DHT22;4594;50.994;7.126;2023-03-24T12:08:29;22.90;37.10
9118;DHT22;4594;50.994;7.126;2023-03-24T12:11:19;22.70;36.60
9118;DHT22;4594;50.994;7.126;2023-03-24T12:13:59;22.60;37.30
9118;DHT22;4594;50.994;7.126;2023-03-24T12:16:47;22.50;37.30
9118;DHT22;4594;50.994;7.126;2023-03-24T12:22:18;22.30;36.80
9118;DHT22;4594;50.994;7.126;2023-03-24T12:30:37;22.00;37.60
9118;DHT22;4594;50.994;7.126;2023-03-24T12:39:19;21.70;37.00
9118;DHT22;4594;50.994;7.126;2023-03-24T12:42:05;21.60;37.40
9118;DHT22;4594;50.994;7.126;2023-03-24T12:53:25;21.30;37.60
9118;DHT22;4594;50.994;7.126;2023-03-24T12:56:17;21.30;37.30
9118;DHT22;4594;50.994;7.126;2023-03-24T12:58:51;21.30;37.20
9118;DHT22;4594;50.994;7.126;2023-03-24T13:01:34;21.20;37.30
9118;DHT22;4594;50.994;7.126;2023-03-24T13:07:07;21.10;36.40
9118;DHT22;4594;50.994;7.126;2023-03-24T13:15:39;21.00;37.30
9118;DHT22;4594;50.994;7.126;2023-03-24T13:26:10;20.80;37.00
9118;DHT22;4594;50.994;7.126;2023-03-24T13:31:33;20.70;36.70
9118;DHT22;4594;50.994;7.126;2023-03-24T13:34:05;20.70;36.70
9118;DHT22;4594;50.994;7.126;2023-03-24T13:37:02;20.70;36.80
9118;DHT22;4594;50.994;7.126;2023-03-24T13:39:37;20.70;36.60
9118;DHT22;4594;50.994;7.126;2023-03-24T13:42:04;20.70;36.80
9118;DHT22;4594;50.994;7.126;2023-03-24T13:44:39;20.70;37.00
9118;DHT22;4594;50.994;7.126;2023-03-24T13:47:12;20.70;36.30
9118;DHT22;4594;50.994;7.126;2023-03-24T13:49:59;20.60;36.70
9118;DHT22;4594;50.994;7.126;2023-03-24T13:52:37;20.60;36.20
9118;DHT22;4594;50.994;7.126;2023-03-24T13:55:21;20.60;36.00
9118;DHT22;4594;50.994;7.126;2023-03-24T13:57:56;20.50;36.40
9118;DHT22;4594;50.994;7.126;2023-03-24T14:00:26;20.60;36.20
9118;DHT22;4594;50.994;7.126;2023-03-24T14:02:54;20.50;36.60
9118;DHT22;4594;50.994;7.126;2023-03-24T14:05:56;20.50;36.50
9118;DHT22;4594;50.994;7.126;2023-03-24T14:11:39;20.30;35.80
9118;DHT22;4594;50.994;7.126;2023-03-24T14:13:55;20.40;36.20
9118;DHT22;4594;50.994;7.126;2023-03-24T14:22:08;20.30;36.50
9118;DHT22;4594;50.994;7.126;2023-03-24T14:24:38;20.20;36.10
9118;DHT22;4594;50.994;7.126;2023-03-24T14:27:30;20.20;36.60
9118;DHT22;4594;50.994;7.126;2023-03-24T14:30:12;20.00;35.90
9118;DHT22;4594;50.994;7.126;2023-03-24T14:32:46;19.80;36.50
9118;DHT22;4594;50.994;7.126;2023-03-24T14:35:46;19.70;36.70
9118;DHT22;4594;50.994;7.126;2023-03-24T14:40:42;19.40;37.00
9118;DHT22;4594;50.994;7.126;2023-03-24T14:43:23;19.30;37.10
9118;DHT22;4594;50.994;7.126;2023-03-24T14:46:00;19.20;36.70
9118;DHT22;4594;50.994;7.126;2023-03-24T14:51:53;19.10;36.50
9118;DHT22;4594;50.994;7.126;2023-03-24T14:54:31;19.00;36.80
9118;DHT22;4594;50.994;7.126;2023-03-24T14:57:02;18.90;36.50
9118;DHT22;4594;50.994;7.126;2023-03-24T14:59:38;18.80;37.10
9118;DHT22;4594;50.994;7.126;2023-03-24T15:05:32;18.70;36.30
9118;DHT22;4594;50.994;7.126;2023-03-24T15:08:21;18.60;35.90
9118;DHT22;4594;50.994;7.126;2023-03-24T15:11:01;18.50;36.30
9118;DHT22;4594;50.994;7.126;2023-03-24T15:13:51;18.50;36.60
9118;DHT22;4594;50.994;7.126;2023-03-24T15:16:31;18.40;36.50
9118;DHT22;4594;50.994;7.126;2023-03-24T15:19:02;18.40;36.60
9118;DHT22;4594;50.994;7.126;2023-03-24T15:21:35;18.40;37.00
9118;DHT22;4594;50.994;7.126;2023-03-24T15:27:31;18.40;36.50
9118;DHT22;4594;50.994;7.126;2023-03-24T15:29:33;18.30;37.30
9118;DHT22;4594;50.994;7.126;2023-03-24T15:31:59;18.30;37.10
9118;DHT22;4594;50.994;7.126;2023-03-24T15:34:38;18.30;37.10
9118;DHT22;4594;50.994;7.126;2023-03-24T15:37:19;18.30;36.80
9118;DHT22;4594;50.994;7.126;2023-03-24T15:39:54;18.30;36.70
9118;DHT22;4594;50.994;7.126;2023-03-24T15:42:22;18.30;37.20
9118;DHT22;4594;50.994;7.126;2023-03-24T15:44:50;18.30;37.20
9118;DHT22;4594;50.994;7.126;2023-03-24T15:47:22;18.30;37.20
9118;DHT22;4594;50.994;7.126;2023-03-24T15:49:58;18.30;37.20
9118;DHT22;4594;50.994;7.126;2023-03-24T15:52:34;18.30;36.90
9118;DHT22;4594;50.994;7.126;2023-03-24T15:57:55;18.20;36.90
9118;DHT22;4594;50.994;7.126;2023-03-24T16:00:27;18.20;37.00
9118;DHT22;4594;50.994;7.126;2023-03-24T16:02:56;18.30;37.10
9118;DHT22;4594;50.994;7.126;2023-03-24T16:05:28;18.20;37.00
9118;DHT22;4594;50.994;7.126;2023-03-24T16:11:11;18.20;36.30
9118;DHT22;4594;50.994;7.126;2023-03-24T16:13:40;18.10;36.40
9118;DHT22;4594;50.994;7.126;2023-03-24T16:18:41;18.00;37.00
9118;DHT22;4594;50.994;7.126;2023-03-24T16:21:18;18.00;37.00
9118;DHT22;4594;50.994;7.126;2023-03-24T16:23:44;17.90;36.70
9118;DHT22;4594;50.994;7.126;2023-03-24T16:26:34;17.90;37.10
9118;DHT22;4594;50.994;7.126;2023-03-24T16:29:13;17.90;37.20
9118;DHT22;4594;50.994;7.126;2023-03-24T16:31:45;17.80;37.00
9118;DHT22;4594;50.994;7.126;2023-03-24T16:34:16;17.70;37.30
9118;DHT22;4594;50.994;7.126;2023-03-24T16:36:53;17.70;37.40
9118;DHT22;4594;50.994;7.126;2023-03-24T16:39:21;17.60;37.40
9118;DHT22;4594;50.994;7.126;2023-03-24T16:41:54;17.50;37.40
9118;DHT22;4594;50.994;7.126;2023-03-24T16:44:21;17.50;37.50
9118;DHT22;4594;50.994;7.126;2023-03-24T16:46:50;17.40;37.60
9118;DHT22;4594;50.994;7.126;2023-03-24T16:49:18;17.30;37.50
9118;DHT22;4594;50.994;7.126;2023-03-24T16:51:45;17.20;37.50
9118;DHT22;4594;50.994;7.126;2023-03-24T16:54:11;17.10;37.50
9118;DHT22;4594;50.994;7.126;2023-03-24T16:56:37;17.00;37.50
9118;DHT22;4594;50.994;7.126;2023-03-24T16:59:05;17.00;37.50
9118;DHT22;4594;50.994;7.126;2023-03-24T17:01:35;16.90;37.60
9118;DHT22;4594;50.994;7.126;2023-03-24T17:06:38;16.70;37.60
9118;DHT22;4594;50.994;7.126;2023-03-24T17:09:06;16.60;37.70
9118;DHT22;4594;50.994;7.126;2023-03-24T17:11:35;16.40;37.70
9118;DHT22;4594;50.994;7.126;2023-03-24T17:14:03;16.30;37.70
9118;DHT22;4594;50.994;7.126;2023-03-24T17:16:34;16.20;37.80
9118;DHT22;4594;50.994;7.126;2023-03-24T17:19:05;16.20;38.00
9118;DHT22;4594;50.994;7.126;2023-03-24T17:21:33;16.10;38.00
9118;DHT22;4594;50.994;7.126;2023-03-24T17:24:06;16.00;38.10
9118;DHT22;4594;50.994;7.126;2023-03-24T17:26:35;16.00;38.30
9118;DHT22;4594;50.994;7.126;2023-03-24T17:29:02;15.90;38.50
9118;DHT22;4594;50.994;7.126;2023-03-24T17:31:28;15.90;38.10
9118;DHT22;4594;50.994;7.126;2023-03-24T17:33:54;15.80;38.00
9118;DHT22;4594;50.994;7.126;2023-03-24T17:36:22;15.70;38.00
9118;DHT22;4594;50.994;7.126;2023-03-24T17:38:48;15.60;37.80
9118;DHT22;4594;50.994;7.126;2023-03-24T17:41:14;15.50;37.70
9118;DHT22;4594;50.994;7.126;2023-03-24T17:43:40;15.40;37.60
9118;DHT22;4594;50.994;7.126;2023-03-24T17:46:06;15.30;37.60
9118;DHT22;4594;50.994;7.126;2023-03-24T17:48:32;15.20;37.50
9118;DHT22;4594;50.994;7.126;2023-03-24T17:50:58;15.10;37.50
9118;DHT22;4594;50.994;7.126;2023-03-24T17:53:25;15.00;37.60
9118;DHT22;4594;50.994;7.126;2023-03-24T17:55:52;14.80;37.50
9118;DHT22;4594;50.994;7.126;2023-03-24T17:58:20;14.70;37.50
9118;DHT22;4594;50.994;7.126;2023-03-24T18:00:47;14.60;37.40
9118;DHT22;4594;50.994;7.126;2023-03-24T18:03:13;14.50;37.40
9118;DHT22;4594;50.994;7.126;2023-03-24T18:05:39;14.40;37.40
9118;DHT22;4594;50.994;7.126;2023-03-24T18:08:05;14.30;37.30
9118;DHT22;4594;50.994;7.126;2023-03-24T18:10:32;14.20;37.40
9118;DHT22;4594;50.994;7.126;2023-03-24T18:13:00;14.10;37.40
9118;DHT22;4594;50.994;7.126;2023-03-24T18:15:30;14.00;37.50
9118;DHT22;4594;50.994;7.126;2023-03-24T18:17:57;13.90;37.60
9118;DHT22;4594;50.994;7.126;2023-03-24T18:20:22;13.80;37.60
9118;DHT22;4594;50.994;7.126;2023-03-24T18:22:48;13.70;37.60
9118;DHT22;4594;50.994;7.126;2023-03-24T18:25:15;13.70;37.70
9118;DHT22;4594;50.994;7.126;2023-03-24T18:27:41;13.60;37.70
9118;DHT22;4594;50.994;7.126;2023-03-24T18:30:09;13.60;37.80
9118;DHT22;4594;50.994;7.126;2023-03-24T18:32:36;13.50;37.80
9118;DHT22;4594;50.994;7.126;2023-03-24T18:35:10;13.40;37.80
9118;DHT22;4594;50.994;7.126;2023-03-24T18:37:40;13.40;37.90
9118;DHT22;4594;50.994;7.126;2023-03-24T18:40:06;13.30;37.90
9118;DHT22;4594;50.994;7.126;2023-03-24T18:42:33;13.20;37.90
9118;DHT22;4594;50.994;7.126;2023-03-24T18:45:00;13.20;38.00
9118;DHT22;4594;50.994;7.126;2023-03-24T18:47:26;13.10;38.00
9118;DHT22;4594;50.994;7.126;2023-03-24T18:49:51;13.10;38.20
9118;DHT22;4594;50.994;7.126;2023-03-24T18:52:17;13.10;38.30
9118;DHT22;4594;50.994;7.126;2023-03-24T18:54:44;13.00;38.40
9118;DHT22;4594;50.994;7.126;2023-03-24T18:57:10;13.00;38.50
9118;DHT22;4594;50.994;7.126;2023-03-24T18:59:36;13.00;38.60
9118;DHT22;4594;50.994;7.126;2023-03-24T19:02:03;13.00;38.70
9118;DHT22;4594;50.994;7.126;2023-03-24T19:04:30;13.00;38.80
9118;DHT22;4594;50.994;7.126;2023-03-24T19:06:56;13.00;38.90